createdAt,value
2023-04-28T00:00:37.983Z,13.35
2023-04-28T00:03:05.006Z,9.68
2023-04-28T00:05:32.394Z,12.52
2023-04-28T00:07:59.286Z,10.65
2023-04-28T00:10:26.101Z,15.02
2023-04-28T00:12:52.861Z,8.57
2023-04-28T00:15:19.720Z,10.73
2023-04-28T00:17:46.840Z,9.07
2023-04-28T00:20:13.862Z,10.95
2023-04-28T00:22:41.056Z,8.65
2023-04-28T00:25:08.556Z,11.80
2023-04-28T00:27:36.707Z,11.77
2023-04-28T00:30:03.995Z,10.77
2023-04-28T00:32:30.999Z,9.38
2023-04-28T00:34:58.295Z,9.50
2023-04-28T00:37:27.603Z,11.50
2023-04-28T00:39:57.523Z,10.57
2023-04-28T00:42:25.705Z,10.27
2023-04-28T00:44:52.590Z,12.07
2023-04-28T00:47:19.677Z,12.40
2023-04-28T00:49:49.703Z,9.43
2023-04-28T00:52:17.617Z,9.30
2023-04-28T00:54:44.456Z,11.88
2023-04-28T00:57:11.338Z,10.10
2023-04-28T00:59:38.560Z,11.73
2023-04-28T01:02:07.732Z,9.68
2023-04-28T01:04:39.403Z,11.80
2023-04-28T01:07:06.450Z,9.40
2023-04-28T01:09:33.188Z,11.50
2023-04-28T01:12:00.161Z,8.38
2023-04-28T01:14:26.998Z,9.73
2023-04-28T01:16:54.617Z,10.05
2023-04-28T01:19:22.913Z,13.27
2023-04-28T01:21:52.984Z,9.73
2023-04-28T01:24:19.991Z,11.00
2023-04-28T01:26:47.005Z,8.68
2023-04-28T01:29:13.877Z,7.95
2023-04-28T01:31:41.294Z,7.85
2023-04-28T01:34:08.376Z,8.55
2023-04-28T01:36:37.291Z,14.23
2023-04-28T01:39:04.963Z,9.32
2023-04-28T01:41:34.526Z,7.57
2023-04-28T01:44:01.696Z,10.35
2023-04-28T01:46:28.609Z,9.48
2023-04-28T01:48:55.729Z,7.85
2023-04-28T01:51:22.524Z,7.55
2023-04-28T01:53:49.361Z,8.77
2023-04-28T01:56:17.477Z,12.77
2023-04-28T01:58:44.465Z,9.50
2023-04-28T02:01:11.599Z,12.13
2023-04-28T02:03:38.553Z,8.60
2023-04-28T02:06:05.796Z,10.07
2023-04-28T02:08:32.728Z,8.40
2023-04-28T02:11:01.574Z,12.50
2023-04-28T02:13:28.465Z,8.65
2023-04-28T02:15:55.620Z,7.82
2023-04-28T02:18:22.578Z,9.63
2023-04-28T02:20:49.449Z,8.93
2023-04-28T02:23:16.876Z,8.02
2023-04-28T02:25:46.283Z,7.68
2023-04-28T02:28:13.269Z,10.32
2023-04-28T02:30:40.200Z,9.38
2023-04-28T02:33:06.939Z,13.30
2023-04-28T02:35:33.828Z,10.00
2023-04-28T02:38:00.874Z,10.90
2023-04-28T02:40:27.875Z,7.88
2023-04-28T02:42:54.778Z,9.95
2023-04-28T02:45:21.519Z,10.63
2023-04-28T02:47:48.483Z,8.00
2023-04-28T02:50:15.270Z,8.90
2023-04-28T02:52:42.001Z,8.55
2023-04-28T02:55:09.095Z,11.35
2023-04-28T02:57:36.130Z,6.95
2023-04-28T03:00:05.797Z,13.27
2023-04-28T03:02:32.681Z,9.75
2023-04-28T03:04:59.576Z,7.47
2023-04-28T03:07:26.480Z,8.45
2023-04-28T03:09:53.162Z,9.02
2023-04-28T03:12:19.868Z,11.80
2023-04-28T03:14:49.206Z,10.75
2023-04-28T03:17:16.220Z,8.35
2023-04-28T03:19:43.302Z,9.90
2023-04-28T03:22:10.144Z,9.15
2023-04-28T03:24:36.947Z,9.45
2023-04-28T03:27:03.877Z,10.63
2023-04-28T03:29:30.721Z,10.48
2023-04-28T03:31:57.876Z,11.65
2023-04-28T03:34:24.740Z,8.30
2023-04-28T03:36:51.801Z,12.10
2023-04-28T03:39:18.664Z,8.60
2023-04-28T03:41:45.492Z,7.40
2023-04-28T03:44:12.203Z,9.25
2023-04-28T03:46:40.751Z,9.30
2023-04-28T03:49:07.674Z,11.27
2023-04-28T03:51:34.519Z,10.00
2023-04-28T03:54:01.509Z,6.43
2023-04-28T03:56:28.766Z,9.65
2023-04-28T03:58:55.564Z,8.43
2023-04-28T04:01:22.344Z,8.75
2023-04-28T04:03:49.417Z,10.20
2023-04-28T04:06:16.409Z,9.98
2023-04-28T04:08:43.797Z,9.57
2023-04-28T04:11:11.963Z,9.68
2023-04-28T04:13:39.034Z,9.20
2023-04-28T04:16:06.853Z,9.80
2023-04-28T04:18:33.723Z,13.13
2023-04-28T04:21:00.795Z,8.38
2023-04-28T04:23:27.672Z,9.13
2023-04-28T04:25:54.472Z,10.60
2023-04-28T04:28:21.407Z,10.55
2023-04-28T04:30:48.312Z,10.68
2023-04-28T04:33:15.104Z,9.38
2023-04-28T04:35:41.918Z,10.60
2023-04-28T04:38:09.029Z,9.98
2023-04-28T04:40:36.130Z,8.07
2023-04-28T04:43:03.048Z,9.10
2023-04-28T04:45:30.478Z,11.82
2023-04-28T04:47:58.162Z,11.65
2023-04-28T04:50:25.249Z,7.97
2023-04-28T04:52:52.031Z,11.13
2023-04-28T04:55:18.973Z,10.02
2023-04-28T04:57:46.483Z,8.68
2023-04-28T05:00:13.738Z,12.93
2023-04-28T05:02:40.800Z,10.38
2023-04-28T05:05:20.389Z,10.20
2023-04-28T05:07:48.504Z,11.70
2023-04-28T05:10:16.382Z,9.85
2023-04-28T05:12:46.788Z,10.90
2023-04-28T05:15:15.148Z,14.20
2023-04-28T05:17:42.198Z,10.05
2023-04-28T05:20:10.547Z,12.25
2023-04-28T05:22:41.764Z,9.55
2023-04-28T05:25:09.205Z,13.63
2023-04-28T05:27:39.486Z,11.50
2023-04-28T05:30:10.561Z,10.43
2023-04-28T05:32:38.388Z,11.68
2023-04-28T05:35:05.638Z,11.57
2023-04-28T05:37:32.477Z,14.40
2023-04-28T05:40:01.938Z,14.18
2023-04-28T05:42:29.028Z,13.70
2023-04-28T05:44:56.060Z,12.52
2023-04-28T05:47:23.112Z,15.45
2023-04-28T05:49:49.969Z,14.93
2023-04-28T05:52:16.715Z,15.48
2023-04-28T05:54:44.934Z,10.68
2023-04-28T05:57:11.855Z,13.02
2023-04-28T05:59:38.666Z,15.68
2023-04-28T06:02:05.510Z,14.07
2023-04-28T06:04:33.015Z,11.75
2023-04-28T06:07:01.318Z,16.20
2023-04-28T06:09:28.248Z,20.55
2023-04-28T06:11:55.092Z,13.82
2023-04-28T06:14:23.199Z,14.60
2023-04-28T06:16:51.228Z,14.75
2023-04-28T06:19:19.202Z,13.35
2023-04-28T06:21:46.706Z,16.33
2023-04-28T06:24:14.931Z,17.52
2023-04-28T06:26:42.148Z,16.30
2023-04-28T06:29:09.135Z,16.40
2023-04-28T06:31:36.024Z,17.02
2023-04-28T06:34:02.871Z,18.20
2023-04-28T06:36:29.931Z,16.45
2023-04-28T06:38:57.380Z,13.73
2023-04-28T06:41:24.263Z,16.17
2023-04-28T06:43:51.170Z,13.98
2023-04-28T06:46:18.114Z,18.83
2023-04-28T06:48:45.159Z,16.83
2023-04-28T06:51:12.017Z,12.20
2023-04-28T06:53:39.136Z,15.27
2023-04-28T06:56:06.168Z,17.85
2023-04-28T06:58:33.156Z,14.77
2023-04-28T07:01:00.973Z,15.55
2023-04-28T07:03:28.090Z,14.70
2023-04-28T07:05:55.253Z,16.20
2023-04-28T07:08:22.549Z,15.20
2023-04-28T07:10:49.320Z,15.75
2023-04-28T07:13:16.109Z,18.83
2023-04-28T07:15:42.978Z,19.95
2023-04-28T07:18:10.480Z,16.27
2023-04-28T07:20:37.434Z,15.05
2023-04-28T07:23:04.237Z,19.45
2023-04-28T07:25:32.132Z,16.98
2023-04-28T07:27:59.265Z,17.17
2023-04-28T07:30:28.020Z,18.33
2023-04-28T07:32:55.763Z,19.42
2023-04-28T07:35:22.909Z,21.25
2023-04-28T07:37:49.917Z,18.98
2023-04-28T07:40:17.768Z,19.27
2023-04-28T07:42:46.196Z,17.15
2023-04-28T07:45:13.282Z,17.23
2023-04-28T07:47:40.478Z,18.48
2023-04-28T07:50:08.512Z,18.25
2023-04-28T07:52:35.718Z,17.73
2023-04-28T07:55:03.265Z,20.45
2023-04-28T07:57:31.722Z,17.88
2023-04-28T07:59:58.747Z,18.50
2023-04-28T08:02:27.525Z,17.73
2023-04-28T08:04:55.011Z,17.85
2023-04-28T08:07:21.940Z,23.70
2023-04-28T08:09:48.731Z,18.65
2023-04-28T08:12:16.023Z,22.35
2023-04-28T08:14:42.806Z,21.30
2023-04-28T08:17:10.126Z,17.60
2023-04-28T08:19:37.484Z,19.35
2023-04-28T08:22:08.017Z,18.23
2023-04-28T08:24:36.250Z,20.10
2023-04-28T08:27:03.596Z,17.27
2023-04-28T08:29:31.869Z,19.52
2023-04-28T08:31:59.505Z,19.77
2023-04-28T08:34:26.217Z,19.02
2023-04-28T08:36:54.168Z,22.00
2023-04-28T08:39:22.891Z,19.63
2023-04-28T08:41:50.662Z,24.63
2023-04-28T08:44:17.918Z,20.25
2023-04-28T08:46:47.849Z,21.35
2023-04-28T08:49:19.157Z,19.23
2023-04-28T08:52:02.401Z,21.03
2023-04-28T08:54:32.001Z,24.00
2023-04-28T08:56:59.543Z,26.42
2023-04-28T08:59:26.796Z,20.75
2023-04-28T09:01:53.887Z,20.13
2023-04-28T09:04:22.542Z,18.77
2023-04-28T09:06:51.125Z,19.75
2023-04-28T09:09:25.404Z,21.77
2023-04-28T09:11:53.410Z,22.15
2023-04-28T09:14:20.294Z,19.83
2023-04-28T09:16:47.998Z,20.27
2023-04-28T09:19:16.675Z,22.33
2023-04-28T09:21:54.900Z,18.98
2023-04-28T09:24:37.729Z,20.60
2023-04-28T09:27:07.699Z,19.35
2023-04-28T09:29:34.683Z,21.80
2023-04-28T09:32:22.809Z,21.33
2023-04-28T09:34:53.711Z,18.52
2023-04-28T09:37:21.672Z,21.52
2023-04-28T09:39:54.404Z,22.52
2023-04-28T09:42:41.474Z,19.02
2023-04-28T09:45:10.633Z,18.55
2023-04-28T09:47:40.179Z,18.80
2023-04-28T09:50:14.749Z,15.93
2023-04-28T09:52:45.002Z,16.70
2023-04-28T09:55:12.769Z,15.60
2023-04-28T09:57:40.279Z,18.83
2023-04-28T10:00:09.320Z,19.00
2023-04-28T10:05:11.207Z,13.98
2023-04-28T10:07:39.213Z,21.38
2023-04-28T10:10:07.905Z,15.43
2023-04-28T10:12:38.432Z,11.32
2023-04-28T10:15:07.875Z,11.60
2023-04-28T10:17:36.762Z,14.32
2023-04-28T10:20:05.303Z,13.05
2023-04-28T10:22:51.110Z,14.05
2023-04-28T10:25:31.286Z,13.05
2023-04-28T10:27:59.495Z,12.02
2023-04-28T10:30:29.875Z,12.30
2023-04-28T10:33:06.647Z,13.40
2023-04-28T10:35:36.737Z,13.52
2023-04-28T10:38:16.856Z,11.70
2023-04-28T10:40:52.063Z,9.05
2023-04-28T10:43:31.123Z,15.32
2023-04-28T10:46:01.214Z,12.40
2023-04-28T10:48:34.726Z,12.02
2023-04-28T10:51:08.123Z,12.70
2023-04-28T10:53:47.642Z,12.13
2023-04-28T10:56:16.907Z,13.93
2023-04-28T10:58:46.318Z,12.43
2023-04-28T11:01:22.330Z,10.00
2023-04-28T11:03:55.452Z,15.73
2023-04-28T11:06:28.262Z,14.07
2023-04-28T11:09:25.713Z,12.65
2023-04-28T11:12:14.111Z,15.18
2023-04-28T11:14:41.768Z,15.55
2023-04-28T11:17:11.944Z,9.68
2023-04-28T11:19:44.001Z,15.77
2023-04-28T11:22:22.775Z,16.55
2023-04-28T11:25:00.532Z,21.70
2023-04-28T11:27:32.345Z,19.00
2023-04-28T11:30:00.362Z,15.93
2023-04-28T11:32:34.014Z,17.83
2023-04-28T11:35:00.951Z,18.60
2023-04-28T11:37:30.909Z,15.48
2023-04-28T11:39:57.740Z,15.80
2023-04-28T11:42:29.864Z,13.23
2023-04-28T11:44:57.032Z,8.07
2023-04-28T11:47:34.440Z,12.90
2023-04-28T11:50:02.909Z,9.07
2023-04-28T11:52:29.742Z,11.32
2023-04-28T11:54:59.288Z,12.40
2023-04-28T11:57:26.933Z,9.98
2023-04-28T11:59:53.702Z,13.82
2023-04-28T12:02:28.984Z,12.55
2023-04-28T12:04:56.229Z,12.60
2023-04-28T12:07:23.726Z,15.23
2023-04-28T12:10:12.824Z,11.40
2023-04-28T12:12:49.979Z,11.50
2023-04-28T12:15:20.829Z,11.65
2023-04-28T12:17:48.471Z,11.52
2023-04-28T12:20:42.700Z,8.68
2023-04-28T12:23:09.649Z,11.38
2023-04-28T12:25:47.850Z,10.48
2023-04-28T12:28:15.343Z,7.82
2023-04-28T12:30:43.669Z,12.77
2023-04-28T12:33:28.545Z,11.50
2023-04-28T12:35:57.194Z,8.13
2023-04-28T12:38:24.957Z,8.93
2023-04-28T12:40:52.618Z,5.35
2023-04-28T12:43:19.543Z,4.13
2023-04-28T12:45:46.336Z,4.38
2023-04-28T12:48:13.235Z,3.50
2023-04-28T12:50:40.105Z,4.00
2023-04-28T12:53:07.127Z,2.75
2023-04-28T12:55:33.913Z,4.90
2023-04-28T12:58:00.919Z,2.80
2023-04-28T13:00:27.756Z,2.78
2023-04-28T13:02:56.851Z,2.85
2023-04-28T13:05:23.779Z,4.70
2023-04-28T13:07:51.158Z,3.78
2023-04-28T13:10:18.833Z,3.83
2023-04-28T13:12:45.901Z,4.30
2023-04-28T13:15:12.728Z,3.50
2023-04-28T13:17:39.888Z,3.25
2023-04-28T13:20:08.646Z,3.88
2023-04-28T13:22:35.899Z,5.82
2023-04-28T13:25:02.791Z,7.22
2023-04-28T13:27:30.613Z,4.57
2023-04-28T13:29:59.260Z,5.13
2023-04-28T13:32:26.133Z,5.20
2023-04-28T13:34:54.627Z,5.15
2023-04-28T13:37:21.766Z,6.18
2023-04-28T13:39:48.511Z,6.55
2023-04-28T13:42:16.183Z,4.95
2023-04-28T13:44:43.149Z,4.47
2023-04-28T13:47:11.200Z,5.40
2023-04-28T13:49:39.597Z,5.03
2023-04-28T13:52:06.719Z,5.07
2023-04-28T13:54:33.519Z,5.28
2023-04-28T13:57:00.391Z,4.90
2023-04-28T13:59:27.349Z,4.28
2023-04-28T14:01:54.078Z,5.28
2023-04-28T14:04:31.365Z,2.83
2023-04-28T14:06:58.517Z,4.88
2023-04-28T14:09:25.312Z,4.53
2023-04-28T14:11:52.506Z,5.00
2023-04-28T14:14:21.707Z,4.47
2023-04-28T14:16:48.904Z,4.20
2023-04-28T14:19:18.083Z,4.05
2023-04-28T14:21:44.900Z,5.03
2023-04-28T14:24:11.767Z,4.78
2023-04-28T14:26:38.689Z,5.13
2023-04-28T14:29:05.784Z,3.13
2023-04-28T14:31:34.209Z,5.15
2023-04-28T14:34:03.161Z,5.60
2023-04-28T14:36:33.132Z,6.72
2023-04-28T14:39:00.652Z,4.88
2023-04-28T14:41:27.580Z,6.47
2023-04-28T14:44:00.673Z,9.77
2023-04-28T14:46:28.583Z,5.88
2023-04-28T14:48:56.501Z,8.70
2023-04-28T14:51:23.345Z,5.72
2023-04-28T14:53:50.907Z,9.07
2023-04-28T14:56:19.705Z,8.27
2023-04-28T14:58:50.806Z,9.93
2023-04-28T15:01:18.480Z,12.07
2023-04-28T15:03:47.634Z,10.77
2023-04-28T15:06:14.591Z,10.38
2023-04-28T15:08:41.840Z,9.10
2023-04-28T15:11:08.641Z,10.45
2023-04-28T15:13:35.905Z,8.77
2023-04-28T15:16:03.158Z,9.93
2023-04-28T15:18:30.115Z,9.77
2023-04-28T15:20:57.138Z,9.68
2023-04-28T15:23:23.982Z,9.55
2023-04-28T15:25:53.715Z,12.00
2023-04-28T15:28:20.835Z,8.77
2023-04-28T15:30:47.631Z,11.48
2023-04-28T15:33:17.366Z,5.60
2023-04-28T15:35:45.113Z,10.00
2023-04-28T15:38:12.542Z,10.45
2023-04-28T15:40:40.589Z,12.02
2023-04-28T15:43:07.935Z,10.57
2023-04-28T15:45:35.073Z,10.23
2023-04-28T15:48:02.576Z,8.88
2023-04-28T15:50:29.434Z,8.25
2023-04-28T15:52:56.380Z,8.23
2023-04-28T15:55:25.072Z,8.73
2023-04-28T15:57:55.037Z,10.10
2023-04-28T16:00:22.041Z,8.88
2023-04-28T16:02:49.345Z,9.95
2023-04-28T16:05:16.675Z,7.10
2023-04-28T16:07:43.851Z,12.35
2023-04-28T16:10:12.910Z,13.15
2023-04-28T16:12:41.140Z,10.88
2023-04-28T16:15:11.564Z,14.43
2023-04-28T16:17:39.295Z,14.30
2023-04-28T16:20:11.210Z,10.45
2023-04-28T16:22:40.845Z,10.43
2023-04-28T16:25:09.196Z,16.67
2023-04-28T16:27:37.226Z,9.48
2023-04-28T16:30:07.657Z,11.02
2023-04-28T16:32:38.706Z,15.25
2023-04-28T16:35:06.484Z,14.70
2023-04-28T16:37:33.539Z,16.20
2023-04-28T16:40:00.669Z,14.40
2023-04-28T16:42:27.314Z,14.02
2023-04-28T16:44:54.182Z,10.55
2023-04-28T16:47:21.678Z,16.75
2023-04-28T16:49:48.972Z,13.48
2023-04-28T16:52:16.987Z,16.45
2023-04-28T16:54:44.114Z,16.58
2023-04-28T16:57:11.083Z,10.48
2023-04-28T16:59:38.107Z,11.25
2023-04-28T17:02:04.994Z,14.77
2023-04-28T17:04:32.353Z,13.63
2023-04-28T17:06:59.565Z,12.60
2023-04-28T17:09:30.028Z,8.85
2023-04-28T17:11:56.809Z,11.05
2023-04-28T17:14:23.671Z,7.25
2023-04-28T17:16:50.434Z,8.45
2023-04-28T17:19:17.153Z,7.47
2023-04-28T17:21:44.130Z,6.43
2023-04-28T17:24:11.113Z,7.88
2023-04-28T17:26:38.103Z,5.78
2023-04-28T17:29:05.148Z,5.95
2023-04-28T17:31:32.240Z,6.30
2023-04-28T17:34:04.202Z,7.85
2023-04-28T17:36:33.402Z,6.88
2023-04-28T17:39:00.700Z,6.63
2023-04-28T17:41:27.437Z,5.20
2023-04-28T17:43:54.305Z,3.75
2023-04-28T17:46:21.957Z,2.10
2023-04-28T17:48:49.439Z,4.15
2023-04-28T17:51:16.233Z,4.32
2023-04-28T17:53:43.223Z,3.33
2023-04-28T17:56:10.085Z,3.63
2023-04-28T17:58:37.404Z,3.47
2023-04-28T18:01:08.542Z,3.08
2023-04-28T18:03:36.682Z,3.60
2023-04-28T18:06:06.120Z,4.38
2023-04-28T18:08:35.233Z,5.03
2023-04-28T18:11:02.780Z,4.40
2023-04-28T18:13:29.763Z,4.88
2023-04-28T18:15:56.622Z,6.05
2023-04-28T18:18:23.489Z,7.47
2023-04-28T18:20:56.529Z,6.97
2023-04-28T18:23:23.574Z,7.32
2023-04-28T18:25:50.254Z,9.00
2023-04-28T18:28:17.417Z,9.40
2023-04-28T18:30:44.212Z,12.98
2023-04-28T18:33:11.040Z,8.65
2023-04-28T18:35:37.973Z,13.30
2023-04-28T18:38:05.931Z,12.63
2023-04-28T18:40:34.555Z,14.52
2023-04-28T18:43:02.335Z,15.90
2023-04-28T18:45:32.260Z,17.55
2023-04-28T18:47:59.334Z,19.65
2023-04-28T18:50:26.922Z,17.73
2023-04-28T18:52:54.029Z,15.93
2023-04-28T18:55:23.441Z,20.48
2023-04-28T18:57:51.981Z,20.27
2023-04-28T19:00:19.077Z,19.13
2023-04-28T19:02:46.274Z,17.27
2023-04-28T19:05:13.577Z,21.67
2023-04-28T19:07:44.411Z,18.83
2023-04-28T19:10:12.301Z,19.50
2023-04-28T19:12:39.081Z,24.70
2023-04-28T19:15:06.272Z,20.38
2023-04-28T19:17:33.172Z,21.65
2023-04-28T19:20:00.279Z,23.42
2023-04-28T19:22:40.480Z,28.45
2023-04-28T19:25:08.807Z,27.08
2023-04-28T19:27:38.350Z,29.92
2023-04-28T19:30:07.630Z,27.17
2023-04-28T19:32:35.125Z,25.35
2023-04-28T19:35:04.417Z,20.35
2023-04-28T19:37:33.749Z,23.00
2023-04-28T19:40:00.563Z,19.40
2023-04-28T19:42:27.714Z,29.00
2023-04-28T19:44:58.615Z,32.17
2023-04-28T19:47:27.028Z,32.88
2023-04-28T19:49:54.614Z,26.52
2023-04-28T19:52:22.321Z,27.52
2023-04-28T19:54:50.154Z,32.25
2023-04-28T19:57:18.918Z,30.92
2023-04-28T19:59:47.403Z,33.97
2023-04-28T20:02:14.843Z,33.35
2023-04-28T20:04:42.146Z,24.88
2023-04-28T20:07:09.618Z,27.40
2023-04-28T20:09:37.909Z,32.97
2023-04-28T20:12:05.988Z,27.85
2023-04-28T20:14:33.392Z,25.67
2023-04-28T20:17:02.046Z,25.20
2023-04-28T20:19:28.989Z,28.73
2023-04-28T20:21:56.087Z,38.22
2023-04-28T20:24:23.288Z,42.45
2023-04-28T20:26:51.057Z,32.92
2023-04-28T20:29:17.959Z,39.22
2023-04-28T20:31:44.858Z,37.63
2023-04-28T20:34:13.332Z,29.05
2023-04-28T20:36:42.644Z,43.35
2023-04-28T20:39:11.348Z,47.40
2023-04-28T20:41:40.999Z,24.55
2023-04-28T20:44:08.478Z,55.78
2023-04-28T20:46:35.694Z,51.97
2023-04-28T20:49:06.482Z,44.45
2023-04-28T20:51:34.210Z,48.45
2023-04-28T20:54:03.996Z,49.20
2023-04-28T20:56:31.347Z,36.78
2023-04-28T20:58:58.089Z,31.73
2023-04-28T21:01:25.150Z,50.80
2023-04-28T21:03:52.068Z,45.05
2023-04-28T21:06:19.344Z,41.00
2023-04-28T21:08:47.173Z,49.97
2023-04-28T21:11:15.165Z,59.13
2023-04-28T21:13:43.457Z,65.80
2023-04-28T21:16:20.959Z,66.10
2023-04-28T21:18:48.477Z,61.83
2023-04-28T21:21:15.391Z,65.15
2023-04-28T21:23:43.406Z,67.97
2023-04-28T21:26:10.412Z,60.83
2023-04-28T21:28:37.697Z,58.08
2023-04-28T21:31:05.156Z,48.65
2023-04-28T21:33:32.351Z,57.35
2023-04-28T21:36:05.120Z,50.97
2023-04-28T21:38:31.955Z,57.22
2023-04-28T21:40:58.808Z,55.28
2023-04-28T21:43:25.728Z,56.40
2023-04-28T21:45:53.067Z,55.35
2023-04-28T21:48:20.039Z,53.25
2023-04-28T21:50:47.643Z,51.42
2023-04-28T21:53:14.508Z,52.10
2023-04-28T21:55:41.449Z,47.05
2023-04-28T21:58:15.042Z,50.55
2023-04-28T22:00:45.059Z,44.90
2023-04-28T22:03:16.404Z,40.70
2023-04-28T22:05:45.231Z,44.17
2023-04-28T22:08:17.289Z,36.20
2023-04-28T22:10:45.591Z,40.75
2023-04-28T22:13:13.293Z,48.85
2023-04-28T22:15:40.228Z,42.42
2023-04-28T22:18:08.270Z,39.72
2023-04-28T22:20:35.771Z,32.53
2023-04-28T22:23:02.577Z,32.28
2023-04-28T22:25:29.376Z,34.60
2023-04-28T22:27:56.343Z,31.55
2023-04-28T22:30:25.788Z,28.55
2023-04-28T22:32:53.557Z,28.00
2023-04-28T22:35:20.339Z,29.05
2023-04-28T22:37:47.270Z,27.08
2023-04-28T22:40:14.093Z,27.75
2023-04-28T22:42:42.543Z,25.10
2023-04-28T22:45:10.918Z,27.45
2023-04-28T22:47:40.694Z,24.10
2023-04-28T22:50:11.698Z,25.55
2023-04-28T22:52:38.649Z,24.80
2023-04-28T22:55:06.495Z,26.15
2023-04-28T22:57:33.520Z,26.08
2023-04-28T23:00:00.725Z,28.02
2023-04-28T23:02:28.006Z,24.00
2023-04-28T23:04:54.976Z,25.23
2023-04-28T23:07:21.979Z,27.25
2023-04-28T23:09:48.958Z,24.75
2023-04-28T23:12:16.361Z,25.50
2023-04-28T23:14:43.181Z,24.77
2023-04-28T23:17:10.071Z,20.65
2023-04-28T23:19:39.273Z,23.45
2023-04-28T23:22:07.432Z,25.63
2023-04-28T23:24:36.823Z,25.77
2023-04-28T23:27:04.246Z,26.88
2023-04-28T23:29:31.934Z,26.15
2023-04-28T23:31:58.963Z,31.45
2023-04-28T23:34:28.480Z,29.27
2023-04-28T23:36:55.378Z,26.85
2023-04-28T23:39:22.285Z,29.05
2023-04-28T23:41:49.250Z,32.88
2023-04-28T23:44:18.172Z,31.67
2023-04-28T23:46:45.161Z,30.35
2023-04-28T23:49:12.765Z,32.35
2023-04-28T23:51:41.056Z,33.53
2023-04-28T23:54:09.662Z,37.40
2023-04-28T23:56:37.817Z,39.00
2023-04-28T23:59:05.379Z,35.80
